Sylvan Springs, Alabama
Current Conditions -  °F | °C
As of 2:53 AM on Saturday 22 Nov 2014 (Local Time) from KBHM Reporting Station
Few Clouds Few Clouds  
Wind Chill: 41°   Ceiling: Unl
Heat Index: 45°   Visibility: 10mi
Dew Point: 33°   Wind: 7mph
Humidity: 63%   Direction: 30°NNE
Pressure: 30.38"   Gusts: NA
Location:  33.5392°N, 87.0555°W
Report Text: KBHM 220853Z 03006KT 10SM FEW060 07/01 A3038 RMK AO2 SLP286 T00720006 50001
Loading
Personal Weather Stations






























Interactive Weather Map New forecast layout! Learn more

10-Day Weather Forecast

Advertisements
Track Severe Weather on mobile